Main page
METAR-TAF:

METAR-TAF

Airports :

London-Southend, England

London Southend Airport

latitude: 51-34N, longitude: 000-42E, elevation: 15 m

Current weather observation

The report was made 43 minutes ago, at 13:20 UTC
Wind 18 kt from the Southwest
Temperature 14°C
Humidity 77%
Pressure 1002 hPa
Visibility 10 km or more
Scattered clouds at a height of 2500 ft

METAR: EGMC 211320Z 22018KT 9999 SCT025 14/10 Q1002 RERA

Time: 15:03 (14:03 UTC)

Forecast

The report was made 3 hours and 2 minutes ago, at 11:01 UTC
Forecast valid from 21 at 12 UTC to 21 at 21 UTC
Wind 18 kt from the South/Southwest with gusts up to 28 kt
Visibility 10 km or more
Scattered clouds at a height of 2000 ft
Probability 40% :
Temporary
from 21 at 12 UTC to 21 at 21 UTC
Wind 25 kt from the Southwest with gusts up to 40 kt
Visibility: 7000 m
rain showers

TAF: EGMC 211101Z 2112/2121 21018G28KT 9999 SCT020 PROB40 TEMPO 2112/2121 22025G40KT 7000 SHRA

Weather observations and forecasts of more than 4000 airports (METAR and TAF reports).

The available stations are represented by yellow and red dots on the map.

Hover mouse over dot to see the name of the station.

Then click to see weather observations and forecasts.

To change the map : click on the green buttons with a black cross to zoom in, on the green button with a dash to zoom out, or on the green arrows for adjacent maps.


METAR-TAF: